Time;durP1;ratioP1;P1;durP2;ratioP2;P2;SDS_P1;SDS_P2;PMS_P1;PMS_P2;Temp;Humidity;BMP_temperature;BMP_pressure;BME280_temperature;BME280_humidity;BME280_pressure;Samples;Min_cycle;Max_cycle;Signal;HPM_P1;HPM_P2
2023/10/12 00:31:19;;;;;;;15.30;3.85;;;23.30;61.30;;;;;;6209136;23;20104;-79
2023/10/12 00:33:50;;;;;;;13.25;3.03;;;23.40;59.80;;;;;;6162582;23;20016;-79
2023/10/12 00:36:24;;;;;;;12.98;3.53;;;23.50;59.50;;;;;;6188565;23;20498;-77
2023/10/12 00:38:59;;;;;;;11.43;3.60;;;23.60;59.90;;;;;;6187076;23;20008;-79
2023/10/12 00:41:29;;;;;;;13.70;3.88;;;23.60;60.40;;;;;;6214292;23;20028;-78
2023/10/12 00:49:21;;;;;;;13.40;3.40;;;23.60;61.60;;;;;;6189626;23;20008;-78
2023/10/12 00:52:21;;;;;;;12.02;3.00;;;23.60;61.30;;;;;;6190477;23;19997;-77
2023/10/12 00:54:49;;;;;;;9.15;2.85;;;23.70;60.80;;;;;;6192512;23;20019;-78
2023/10/12 00:57:16;;;;;;;14.23;3.22;;;23.70;61.80;;;;;;6163990;23;20050;-78
2023/10/12 00:59:44;;;;;;;15.82;3.50;;;23.60;60.90;;;;;;6214337;23;20054;-78
2023/10/12 01:02:15;;;;;;;12.52;3.25;;;23.70;61.10;;;;;;6187843;23;20005;-78
2023/10/12 01:04:43;;;;;;;15.15;3.42;;;23.70;61.70;;;;;;6189338;23;20052;-78
2023/10/12 01:07:19;;;;;;;19.95;3.70;;;23.70;61.50;;;;;;6187459;23;20017;-78
2023/10/12 01:09:48;;;;;;;7.13;2.80;;;23.80;59.20;;;;;;6214536;23;20028;-79
2023/10/12 01:12:17;;;;;;;11.60;2.85;;;23.80;60.00;;;;;;6188216;23;20059;-78
2023/10/12 01:14:47;;;;;;;6.40;2.58;;;23.90;59.40;;;;;;6214435;23;20024;-78
2023/10/12 01:17:23;;;;;;;7.68;2.83;;;23.90;58.50;;;;;;6214453;23;20004;-78
2023/10/12 01:19:52;;;;;;;12.15;2.92;;;24.00;58.70;;;;;;6215898;23;20028;-78
2023/10/12 01:22:31;;;;;;;4.30;2.20;;;24.00;56.10;;;;;;6216545;23;20015;-79
2023/10/12 01:25:03;;;;;;;;;;;24.20;55.80;;;;;;6193035;23;20027;-78
2023/10/12 01:27:31;;;;;;;18.77;4.35;;;24.30;55.50;;;;;;6191254;23;19915;-79
2023/10/12 01:30:13;;;;;;;13.27;3.10;;;24.30;57.60;;;;;;6189809;23;20012;-78
2023/10/12 01:32:43;;;;;;;7.72;2.47;;;24.30;57.30;;;;;;6184776;23;20149;-78
2023/10/12 01:35:13;;;;;;;10.05;3.20;;;24.30;57.00;;;;;;6186192;23;20420;-79
2023/10/12 01:37:55;;;;;;;9.75;2.60;;;24.30;56.80;;;;;;6184917;23;20027;-79
2023/10/12 01:40:24;;;;;;;11.32;2.88;;;24.30;57.10;;;;;;6186296;23;20001;-78
2023/10/12 01:42:52;;;;;;;9.98;2.88;;;24.30;56.40;;;;;;6184846;23;20005;-79
2023/10/12 01:48:05;;;;;;;10.18;2.70;;;24.50;54.70;;;;;;6186185;23;20027;-79
2023/10/12 01:50:38;;;;;;;15.35;3.30;;;24.70;52.60;;;;;;6184653;23;20340;-76
2023/10/12 01:55:52;;;;;;;10.05;2.88;;;24.70;56.50;;;;;;6186430;23;20020;-79
2023/10/12 01:58:20;;;;;;;17.45;6.82;;;24.70;55.70;;;;;;6160735;23;20345;-78
2023/10/12 02:00:51;;;;;;;16.67;4.35;;;24.70;55.50;;;;;;6184732;23;20455;-78
2023/10/12 02:03:31;;;;;;;12.18;3.45;;;24.80;56.30;;;;;;6184377;23;20005;-78
2023/10/12 02:06:04;;;;;;;10.27;3.83;;;24.80;57.30;;;;;;6184693;23;20025;-78
2023/10/12 02:08:33;;;;;;;18.20;4.35;;;24.70;58.20;;;;;;6184645;23;20005;-78
2023/10/12 02:11:11;;;;;;;10.60;3.85;;;24.60;57.60;;;;;;6184239;23;20012;-79
2023/10/12 02:13:41;;;;;;;10.55;3.72;;;24.60;57.30;;;;;;6184168;23;20009;-79
2023/10/12 02:16:11;;;;;;;;;;;24.60;58.10;;;;;;6160719;23;20004;-80
2023/10/12 02:18:39;;;;;;;12.60;3.67;;;24.60;59.20;;;;;;6184415;23;19900;-78
2023/10/12 02:34:20;;;;;;;14.40;3.95;;;24.60;60.30;;;;;;6168095;23;20092;-78
2023/10/12 02:39:41;;;;;;;9.88;3.85;;;24.40;61.60;;;;;;6172342;23;20483;-78
2023/10/12 02:47:33;;;;;;;24.77;4.28;;;24.30;61.80;;;;;;6191253;23;20017;-79
2023/10/12 02:50:09;;;;;;;14.00;3.83;;;24.30;62.20;;;;;;6167912;23;20009;-79
2023/10/12 02:52:36;;;;;;;14.82;4.00;;;24.30;63.00;;;;;;6190926;23;20005;-78
2023/10/12 02:57:59;;;;;;;12.35;3.50;;;24.30;61.80;;;;;;6171184;23;20031;-78
2023/10/12 03:03:23;;;;;;;11.45;3.20;;;24.40;60.90;;;;;;6193342;23;20086;-73
2023/10/12 03:05:52;;;;;;;11.80;3.25;;;24.30;62.90;;;;;;6169593;23;20001;-74
2023/10/12 03:08:20;;;;;;;8.00;3.30;;;24.40;62.50;;;;;;6215430;23;20013;-77
2023/10/12 03:13:36;;;;;;;11.13;2.80;;;24.40;60.50;;;;;;6215491;23;20019;-76
2023/10/12 03:16:24;;;;;;;15.70;2.83;;;24.50;58.20;;;;;;6189802;23;20059;-75
2023/10/12 03:19:00;;;;;;;12.57;2.90;;;24.60;58.10;;;;;;6215596;23;20039;-76
2023/10/12 03:21:33;;;;;;;9.50;2.72;;;24.80;55.70;;;;;;6190766;23;20016;-75
2023/10/12 03:24:03;;;;;;;11.27;3.72;;;24.90;55.70;;;;;;6190324;23;20016;-75
2023/10/12 03:26:33;;;;;;;9.63;3.15;;;25.00;57.70;;;;;;6165461;23;20012;-75
2023/10/12 03:31:57;;;;;;;10.00;3.05;;;25.00;53.60;;;;;;6215007;23;20026;-75
2023/10/12 03:34:35;;;;;;;7.35;2.40;;;25.20;56.70;;;;;;6214159;23;20015;-75
2023/10/12 03:37:13;;;;;;;6.75;2.50;;;25.20;54.80;;;;;;6215311;23;20005;-75
2023/10/12 03:50:31;;;;;;;4.32;1.77;;;25.60;40.30;;;;;;6171755;23;20019;-76
2023/10/12 03:52:59;;;;;;;3.35;1.25;;;25.90;38.60;;;;;;6215264;23;20024;-75
2023/10/12 03:55:27;;;;;;;2.33;1.38;;;26.10;36.50;;;;;;6214839;23;20011;-76
2023/10/12 03:58:06;;;;;;;3.22;1.20;;;26.20;34.80;;;;;;6215282;23;20000;-75
2023/10/12 04:00:48;;;;;;;4.72;1.52;;;26.40;34.40;;;;;;6166334;23;20009;-76
2023/10/12 04:03:35;;;;;;;5.35;1.40;;;26.60;33.70;;;;;;6191124;23;20009;-75
2023/10/12 04:06:15;;;;;;;5.72;1.40;;;26.70;34.10;;;;;;6214787;23;20000;-75
2023/10/12 04:09:14;;;;;;;5.35;1.60;;;26.80;33.40;;;;;;6165598;23;19996;-76
2023/10/12 04:11:49;;;;;;;2.33;1.45;;;26.80;34.30;;;;;;6212610;23;20386;-75
2023/10/12 04:14:43;;;;;;;3.40;1.30;;;26.90;32.50;;;;;;6192145;23;20080;-75
2023/10/12 04:17:09;;;;;;;2.75;1.23;;;26.90;32.10;;;;;;6214444;23;20005;-75
2023/10/12 04:19:43;;;;;;;3.67;1.40;;;27.00;31.40;;;;;;6189063;23;20076;-75
2023/10/12 04:25:12;;;;;;;2.47;1.40;;;27.10;31.60;;;;;;6168192;23;20428;-75
2023/10/12 04:27:57;;;;;;;1.65;1.20;;;27.10;32.30;;;;;;6214705;23;20059;-75
2023/10/12 04:33:12;;;;;;;2.22;1.27;;;27.30;31.90;;;;;;6189097;23;20078;-76
2023/10/12 04:44:35;;;;;;;1.75;1.30;;;27.40;31.00;;;;;;6105089;23;20436;-81
2023/10/12 04:47:06;;;;;;;3.67;1.27;;;27.40;31.30;;;;;;6122332;23;20398;-81
2023/10/12 04:57:32;;;;;;;12.63;2.83;;;27.20;40.90;;;;;;6167088;23;20096;-81
2023/10/12 05:00:24;;;;;;;6.43;2.00;;;27.10;44.80;;;;;;6164279;23;20071;-81
2023/10/12 05:03:02;;;;;;;7.70;1.70;;;26.80;44.70;;;;;;6148836;23;20005;-83
2023/10/12 05:05:55;;;;;;;13.50;2.10;;;26.60;35.90;;;;;;6190064;23;20001;-82
2023/10/12 05:08:22;;;;;;;5.10;1.33;;;26.80;34.60;;;;;;6213673;23;20016;-77
2023/10/12 05:10:50;;;;;;;3.80;1.45;;;26.80;33.30;;;;;;6162672;23;19997;-79
2023/10/12 05:13:20;;;;;;;2.05;1.48;;;26.90;32.60;;;;;;6184125;23;20019;-84
2023/10/12 05:15:54;;;;;;;3.47;1.60;;;26.90;32.40;;;;;;6185701;23;20672;-83
2023/10/12 05:18:23;;;;;;;3.20;1.33;;;27.00;31.60;;;;;;6187224;23;20055;-83
2023/10/12 05:20:50;;;;;;;1.65;1.20;;;27.00;31.90;;;;;;6160370;23;20054;-86
2023/10/12 05:23:18;;;;;;;2.35;1.38;;;27.00;31.60;;;;;;6160004;23;20009;-89
2023/10/12 05:25:52;;;;;;;4.22;1.20;;;27.00;31.40;;;;;;6185047;23;20084;-86
2023/10/12 05:28:21;;;;;;;5.05;1.52;;;27.10;30.90;;;;;;6186459;23;20088;-85
2023/10/12 05:36:11;;;;;;;3.63;1.30;;;27.20;31.00;;;;;;6179462;23;20063;-82
2023/10/12 05:38:51;;;;;;;2.42;1.00;;;27.20;30.90;;;;;;6132329;23;20013;-84
2023/10/12 05:41:36;;;;;;;;;;;27.20;31.40;;;;;;6179340;23;20329;-78
2023/10/12 05:44:08;;;;;;;3.03;1.50;;;27.20;31.10;;;;;;6177523;23;19900;-78
2023/10/12 05:46:36;;;;;;;1.80;1.40;;;27.30;31.00;;;;;;6156454;23;20044;-84
2023/10/12 05:49:12;;;;;;;1.67;1.25;;;27.20;30.80;;;;;;6181349;23;20527;-93
2023/10/12 05:51:44;;;;;;;2.25;1.48;;;27.20;30.60;;;;;;6158002;23;20037;-90
2023/10/12 05:54:20;;;;;;;3.17;1.40;;;27.20;30.40;;;;;;6181872;23;20005;-87
2023/10/12 05:56:51;;;;;;;2.38;1.33;;;27.20;30.10;;;;;;6180659;23;20424;-85
2023/10/12 05:59:19;;;;;;;6.70;1.48;;;27.30;30.40;;;;;;6155684;23;19997;-84
2023/10/12 06:01:48;;;;;;;1.58;1.23;;;27.30;30.60;;;;;;6179535;23;20373;-77
2023/10/12 06:04:16;;;;;;;4.63;1.70;;;27.20;30.00;;;;;;6155192;23;20297;-77
2023/10/12 06:06:43;;;;;;;3.35;1.30;;;27.30;30.30;;;;;;6155935;23;20017;-79
2023/10/12 06:09:24;;;;;;;4.47;1.67;;;27.30;30.50;;;;;;6156468;23;20009;-79
2023/10/12 06:11:53;;;;;;;19.35;3.58;;;27.30;33.50;;;;;;6180826;23;20012;-78
2023/10/12 06:14:20;;;;;;;11.40;3.33;;;27.20;48.10;;;;;;6182828;23;20012;-78
2023/10/12 06:16:54;;;;;;;11.30;3.22;;;26.80;48.90;;;;;;6156539;23;20023;-78
2023/10/12 06:19:29;;;;;;;16.25;3.45;;;26.50;49.40;;;;;;6135107;23;20009;-78
2023/10/12 06:21:59;;;;;;;15.20;3.55;;;26.30;50.80;;;;;;6158089;23;20346;-79
2023/10/12 06:24:36;;;;;;;12.85;3.60;;;26.00;52.90;;;;;;6156851;23;20111;-78
2023/10/12 06:27:24;;;;;;;15.15;2.92;;;25.80;53.20;;;;;;6159757;23;20017;-91
2023/10/12 06:29:54;;;;;;;10.05;3.40;;;25.70;53.10;;;;;;6185316;23;20013;-90
2023/10/12 06:32:31;;;;;;;10.82;2.85;;;25.50;53.00;;;;;;6184701;23;20104;-90
2023/10/12 06:45:54;;;;;;;11.93;2.80;;;25.20;52.90;;;;;;6179732;23;20016;-81
2023/10/12 06:51:12;;;;;;;10.68;2.75;;;25.10;52.10;;;;;;6182060;23;20124;-81
2023/10/12 06:53:41;;;;;;;16.08;3.28;;;25.00;51.40;;;;;;6180258;23;20012;-80
2023/10/12 06:59:11;;;;;;;10.85;2.80;;;25.00;49.90;;;;;;6157180;23;20103;-81
2023/10/12 07:02:27;;;;;;;9.73;2.47;;;25.00;49.60;;;;;;6160927;23;20005;-81
2023/10/12 07:04:53;;;;;;;12.05;2.85;;;25.00;49.50;;;;;;6164484;23;20013;-81
2023/10/12 07:07:17;;;;;;;9.23;2.78;;;25.00;49.80;;;;;;6179528;23;20056;-81
2023/10/12 07:09:46;;;;;;;12.20;2.60;;;25.00;49.90;;;;;;6154742;23;20005;-82
2023/10/12 07:12:15;;;;;;;8.97;2.60;;;25.00;49.40;;;;;;6180513;23;20009;-81
2023/10/12 07:14:53;;;;;;;8.75;2.30;;;24.90;49.20;;;;;;6178761;23;20052;-82
2023/10/12 07:17:31;;;;;;;10.10;2.80;;;24.90;49.40;;;;;;6179993;23;20036;-82
2023/10/12 07:19:59;;;;;;;8.88;2.85;;;24.90;50.00;;;;;;6179240;23;20005;-80
2023/10/12 07:22:26;;;;;;;14.90;3.55;;;24.80;50.30;;;;;;6181312;23;20371;-81
2023/10/12 07:24:54;;;;;;;10.05;2.75;;;24.80;50.70;;;;;;6182991;23;20007;-79
2023/10/12 07:27:22;;;;;;;12.68;2.92;;;24.80;51.00;;;;;;6183015;23;20017;-79
2023/10/12 07:32:54;;;;;;;10.75;2.97;;;24.60;51.60;;;;;;6138619;23;20025;-82
2023/10/12 07:35:38;;;;;;;8.40;2.40;;;24.60;51.90;;;;;;6181909;23;19997;-82
2023/10/12 07:38:34;;;;;;;13.07;3.10;;;24.50;51.60;;;;;;6179822;23;20015;-80
2023/10/12 07:41:03;;;;;;;10.75;2.70;;;24.60;51.10;;;;;;6142635;23;20055;-79
2023/10/12 07:43:38;;;;;;;10.87;2.63;;;24.50;50.50;;;;;;6152444;23;20031;-80
2023/10/12 07:46:24;;;;;;;7.35;2.53;;;24.60;50.20;;;;;;6180438;23;20005;-81
2023/10/12 07:48:51;;;;;;;10.70;2.72;;;24.60;50.70;;;;;;6159334;23;20009;-88
2023/10/12 07:51:30;;;;;;;9.13;2.45;;;24.50;50.90;;;;;;6179411;23;20032;-77
2023/10/12 07:54:25;;;;;;;7.38;2.63;;;24.50;51.90;;;;;;6179902;23;20425;-78
2023/10/12 07:56:53;;;;;;;14.13;3.45;;;24.50;52.50;;;;;;6181267;23;20012;-77
2023/10/12 07:59:22;;;;;;;11.05;3.15;;;24.50;52.60;;;;;;6179004;23;20366;-77
2023/10/12 08:01:54;;;;;;;11.10;3.20;;;24.40;52.80;;;;;;6179877;23;20008;-80
2023/10/12 08:04:29;;;;;;;10.90;3.03;;;24.30;52.80;;;;;;6180627;23;20318;-77
2023/10/12 08:06:57;;;;;;;9.35;2.97;;;24.30;52.90;;;;;;6155642;23;20021;-76
2023/10/12 08:11:53;;;;;;;11.73;3.10;;;24.30;51.80;;;;;;6181021;23;20088;-79
2023/10/12 08:19:45;;;;;;;10.73;3.03;;;24.20;50.40;;;;;;6179672;23;20135;-75
2023/10/12 08:22:31;;;;;;;8.60;3.25;;;24.30;49.40;;;;;;6179766;23;20009;-77
2023/10/12 08:25:04;;;;;;;7.10;3.22;;;24.30;48.80;;;;;;6178378;23;20457;-77
2023/10/12 08:30:48;;;;;;;6.55;2.90;;;24.30;45.90;;;;;;6179370;23;20067;-80
2023/10/12 08:33:14;;;;;;;4.57;2.40;;;24.40;43.30;;;;;;6179034;23;20465;-83
2023/10/12 08:38:40;;;;;;;9.88;3.08;;;24.70;42.00;;;;;;6179801;23;20024;-78
2023/10/12 08:43:53;;;;;;;11.93;3.13;;;24.70;44.10;;;;;;6177272;23;20375;-79
2023/10/12 08:46:49;;;;;;;12.27;3.50;;;24.70;44.30;;;;;;6179248;23;20428;-83
2023/10/12 08:52:27;;;;;;;9.25;3.08;;;24.70;44.30;;;;;;6180241;23;20344;-78
2023/10/12 08:54:53;;;;;;;9.13;3.20;;;24.60;44.30;;;;;;6155689;23;20084;-82
2023/10/12 08:57:55;;;;;;;10.52;2.88;;;24.60;44.60;;;;;;6155873;23;20293;-78
2023/10/12 09:05:51;;;;;;;152.63;8.75;;;24.50;46.80;;;;;;6181283;23;20071;-79
2023/10/12 09:10:51;;;;;;;17.13;2.67;;;24.50;57.10;;;;;;6178888;23;20020;-73
2023/10/12 09:13:24;;;;;;;17.50;2.88;;;23.50;62.10;;;;;;6180152;23;20471;-76
2023/10/12 09:15:56;;;;;;;13.57;2.78;;;22.70;66.70;;;;;;6154647;23;20461;-76
2023/10/12 09:18:29;;;;;;;12.45;2.67;;;22.20;71.30;;;;;;6155333;23;20080;-78
2023/10/12 09:31:48;;;;;;;5.93;1.90;;;21.80;72.60;;;;;;6179283;23;20009;-80
2023/10/12 09:36:45;;;;;;;15.40;2.40;;;22.00;71.60;;;;;;6184461;23;20016;-81
2023/10/12 09:39:13;;;;;;;8.38;2.33;;;22.10;72.10;;;;;;6209610;23;20483;-76
2023/10/12 09:41:55;;;;;;;8.68;2.00;;;22.10;70.70;;;;;;6162856;23;20047;-76
2023/10/12 09:44:28;;;;;;;9.10;2.20;;;22.20;70.60;;;;;;6165508;23;20005;-76
2023/10/12 09:46:56;;;;;;;7.15;2.10;;;22.30;70.90;;;;;;6187023;23;20012;-78
2023/10/12 09:49:29;;;;;;;6.57;2.05;;;22.30;70.10;;;;;;6185307;23;20009;-77
2023/10/12 09:52:00;;;;;;;5.95;1.95;;;22.30;69.20;;;;;;6186490;23;20018;-76
2023/10/12 09:54:57;;;;;;;7.68;1.92;;;22.30;68.80;;;;;;6162902;23;20076;-77
2023/10/12 09:57:28;;;;;;;6.80;1.88;;;22.40;68.40;;;;;;6184756;23;20023;-84
2023/10/12 10:00:27;;;;;;;7.13;2.10;;;22.40;67.50;;;;;;6216790;23;20008;-82
2023/10/12 10:02:42;;;;;;;5.70;1.98;;;22.50;66.00;;;;;;6214771;23;20443;-85
2023/10/12 10:07:52;;;;;;;7.10;2.03;;;22.50;64.20;;;;;;6216724;23;20046;-88
2023/10/12 10:10:33;;;;;;;6.72;2.00;;;22.50;62.30;;;;;;6191994;23;20019;-85
2023/10/12 10:15:44;;;;;;;2.95;1.90;;;22.50;62.00;;;;;;6218764;23;20023;-81
2023/10/12 10:18:16;;;;;;;4.00;1.73;;;22.50;61.50;;;;;;6198364;23;20004;-80
2023/10/12 10:20:46;;;;;;;9.82;1.95;;;22.40;60.40;;;;;;6195086;23;20008;-81
2023/10/12 10:23:19;;;;;;;9.85;1.88;;;22.30;59.70;;;;;;6166658;23;20330;-77
2023/10/12 10:28:54;;;;;;;3.95;1.63;;;22.30;59.80;;;;;;6173514;23;20340;-79
2023/10/12 10:31:33;;;;;;;5.65;1.65;;;22.10;57.80;;;;;;6170709;23;20003;-79
2023/10/12 10:34:07;;;;;;;3.38;1.65;;;22.00;55.90;;;;;;6166185;23;20427;-75
2023/10/12 10:36:35;;;;;;;9.00;1.67;;;21.90;54.70;;;;;;6188790;23;20008;-78
2023/10/12 10:44:22;;;;;;;6.43;1.60;;;21.80;54.70;;;;;;6169402;23;20016;-76
2023/10/12 10:46:54;;;;;;;7.20;1.42;;;21.80;53.90;;;;;;6139192;23;20675;-77
2023/10/12 10:49:21;;;;;;;6.55;1.77;;;21.70;53.80;;;;;;6166377;23;19997;-76
2023/10/12 10:52:38;;;;;;;6.28;1.30;;;21.50;53.30;;;;;;6164263;23;20004;-77
2023/10/12 10:54:37;;;;;;;7.50;1.55;;;21.40;53.30;;;;;;6171658;23;20008;-77
2023/10/12 10:57:24;;;;;;;8.45;1.33;;;21.30;54.40;;;;;;6214857;23;20001;-77
2023/10/12 10:59:52;;;;;;;5.15;1.63;;;21.20;52.70;;;;;;6146554;23;20308;-79
2023/10/12 11:02:21;;;;;;;6.45;1.48;;;20.90;51.40;;;;;;6163919;23;20005;-78
2023/10/12 11:04:54;;;;;;;1.10;0.90;;;20.80;52.10;;;;;;6214810;23;20002;-81
2023/10/12 11:07:22;;;;;;;2.95;1.33;;;20.60;50.10;;;;;;6215355;23;20017;-78
2023/10/12 11:12:21;;;;;;;3.95;1.10;;;20.30;49.20;;;;;;6214179;23;20008;-80
2023/10/12 11:15:01;;;;;;;2.28;1.35;;;20.30;48.50;;;;;;6214688;23;20072;-78
2023/10/12 11:18:17;;;;;;;2.30;0.88;;;20.20;48.90;;;;;;6191667;23;20008;-81
2023/10/12 11:23:22;;;;;;;3.70;1.15;;;20.00;48.80;;;;;;6131599;23;20004;-76
2023/10/12 11:25:49;;;;;;;2.55;1.10;;;20.00;49.50;;;;;;6188593;23;20032;-76
2023/10/12 11:28:26;;;;;;;5.13;1.13;;;20.10;49.40;;;;;;6189179;23;20042;-79
2023/10/12 11:31:01;;;;;;;3.50;1.00;;;20.00;49.60;;;;;;6214610;23;20080;-81
2023/10/12 11:33:29;;;;;;;2.72;0.70;;;20.00;48.90;;;;;;6189759;23;20435;-78
2023/10/12 11:36:09;;;;;;;1.20;0.90;;;19.90;48.70;;;;;;6139082;23;20000;-78
2023/10/12 11:38:37;;;;;;;1.92;0.80;;;19.80;48.50;;;;;;6144451;23;20012;-79
2023/10/12 11:41:14;;;;;;;1.95;0.80;;;19.80;47.90;;;;;;6213496;23;20464;-80
2023/10/12 11:43:53;;;;;;;2.30;0.77;;;19.80;48.30;;;;;;6188069;23;20521;-78
2023/10/12 11:46:26;;;;;;;1.80;0.73;;;19.80;48.80;;;;;;6215116;23;20047;-80
2023/10/12 11:49:10;;;;;;;1.63;0.95;;;19.80;47.60;;;;;;6189193;23;20011;-78
2023/10/12 11:51:53;;;;;;;1.42;0.90;;;19.70;47.00;;;;;;6165626;23;20005;-82
2023/10/12 11:54:21;;;;;;;1.25;0.70;;;19.60;46.40;;;;;;6143009;23;20059;-87
2023/10/12 11:56:51;;;;;;;1.92;0.80;;;19.50;46.50;;;;;;6215864;23;20009;-85
2023/10/12 11:59:31;;;;;;;5.25;1.05;;;19.50;46.20;;;;;;6188981;23;20060;-85
2023/10/12 12:02:06;;;;;;;1.17;0.60;;;19.30;46.40;;;;;;6190290;23;20113;-82
2023/10/12 12:04:39;;;;;;;3.78;1.05;;;19.30;45.70;;;;;;6215210;23;20297;-88
2023/10/12 12:07:10;;;;;;;1.23;0.65;;;19.20;46.20;;;;;;6189731;23;20432;-83
2023/10/12 12:09:53;;;;;;;2.35;1.00;;;19.20;45.50;;;;;;6166706;23;20371;-81
2023/10/12 12:12:20;;;;;;;1.27;0.82;;;19.20;45.70;;;;;;6191039;23;20071;-86
2023/10/12 12:14:47;;;;;;;1.73;0.60;;;19.20;45.00;;;;;;6215904;23;20019;-87
2023/10/12 12:17:17;;;;;;;1.63;1.00;;;19.20;45.00;;;;;;6189331;23;20080;-87
2023/10/12 12:19:44;;;;;;;0.63;0.60;;;19.20;45.00;;;;;;6190459;23;20008;-87
2023/10/12 12:22:13;;;;;;;1.70;0.85;;;19.20;44.90;;;;;;6216095;23;20091;-88
2023/10/12 12:24:46;;;;;;;1.17;0.88;;;19.20;45.70;;;;;;6216270;23;20008;-88
2023/10/12 12:29:59;;;;;;;4.50;0.80;;;19.00;45.30;;;;;;6172651;23;20062;-81
2023/10/12 12:32:27;;;;;;;1.95;0.98;;;19.10;45.10;;;;;;6215880;23;20089;-88
2023/10/12 12:34:54;;;;;;;4.22;0.98;;;19.00;45.00;;;;;;6215278;23;20039;-90
2023/10/12 12:37:22;;;;;;;1.80;0.82;;;19.00;45.40;;;;;;6189831;23;20005;-88
2023/10/12 12:40:27;;;;;;;1.85;1.10;;;18.90;45.40;;;;;;6215501;23;20083;-86
2023/10/12 12:42:48;;;;;;;2.95;0.90;;;18.90;46.10;;;;;;6176170;23;20084;-88
2023/10/12 12:45:15;;;;;;;4.15;0.80;;;18.80;46.10;;;;;;6164649;23;20001;-83
2023/10/12 12:47:42;;;;;;;1.50;0.73;;;18.80;46.10;;;;;;6163764;23;20023;-89
2023/10/12 12:50:10;;;;;;;1.15;0.70;;;18.80;45.20;;;;;;6215499;23;20000;-89
2023/10/12 12:52:40;;;;;;;0.95;0.70;;;18.70;44.90;;;;;;6163933;23;20024;-88
2023/10/12 12:55:10;;;;;;;;;;;18.80;46.70;;;;;;6190968;23;20047;-90
2023/10/12 12:57:42;;;;;;;4.17;0.80;;;18.70;48.00;;;;;;6190106;23;19950;-83
2023/10/12 13:00:10;;;;;;;2.85;0.85;;;18.60;50.40;;;;;;6189868;23;20001;-86
2023/10/12 13:02:38;;;;;;;2.83;0.90;;;18.20;54.80;;;;;;6162481;23;20009;-83
2023/10/12 13:05:07;;;;;;;4.07;0.93;;;17.80;59.20;;;;;;6162705;23;20015;-83
2023/10/12 13:07:35;;;;;;;3.95;0.80;;;17.30;64.40;;;;;;6214569;23;20063;-81
2023/10/12 13:10:02;;;;;;;3.95;1.00;;;16.90;66.10;;;;;;6188138;23;20001;-79
2023/10/12 13:12:32;;;;;;;3.45;1.10;;;16.60;67.60;;;;;;6219031;23;20343;-80
2023/10/12 13:15:00;;;;;;;1.52;0.70;;;16.50;70.90;;;;;;6212898;23;20418;-80
2023/10/12 13:17:31;;;;;;;4.40;0.85;;;16.40;73.90;;;;;;6187795;23;20005;-80
2023/10/12 13:19:58;;;;;;;1.45;0.90;;;16.20;72.60;;;;;;6188068;23;20391;-79
2023/10/12 13:22:26;;;;;;;4.25;1.40;;;16.20;71.60;;;;;;6213916;23;20047;-79
2023/10/12 13:24:57;;;;;;;2.92;0.93;;;16.10;72.10;;;;;;6163119;23;20091;-80
2023/10/12 13:27:29;;;;;;;7.78;1.30;;;16.10;72.10;;;;;;6165818;23;20017;-81
2023/10/12 13:30:09;;;;;;;3.42;1.27;;;16.00;72.60;;;;;;6165664;23;20098;-81
2023/10/12 13:32:42;;;;;;;3.92;1.08;;;16.10;72.10;;;;;;6192681;23;20451;-81
2023/10/12 13:35:18;;;;;;;3.25;1.15;;;16.10;72.10;;;;;;6189106;23;20055;-81
2023/10/12 13:37:46;;;;;;;3.13;0.98;;;16.10;71.00;;;;;;6216173;23;20011;-83
2023/10/12 13:40:16;;;;;;;2.78;0.80;;;16.10;72.00;;;;;;6215522;23;20475;-81
2023/10/12 13:42:43;;;;;;;;;;;16.10;72.20;;;;;;6166879;23;20079;-82
2023/10/12 13:45:18;;;;;;;1.88;0.80;;;16.20;73.50;;;;;;6216066;23;19900;-81
2023/10/12 13:47:46;;;;;;;3.72;1.15;;;16.20;73.30;;;;;;6216210;23;20016;-81
2023/10/12 13:50:14;;;;;;;1.40;0.80;;;16.10;73.00;;;;;;6165194;23;20005;-82
2023/10/12 13:52:42;;;;;;;2.45;1.08;;;16.10;73.20;;;;;;6216583;23;20005;-82
2023/10/12 13:55:13;;;;;;;1.50;0.90;;;16.10;73.30;;;;;;6190000;23;20375;-81
2023/10/12 13:58:05;;;;;;;3.35;0.85;;;16.10;73.00;;;;;;6215157;23;20036;-82
2023/10/12 14:00:34;;;;;;;6.75;1.25;;;16.00;72.70;;;;;;6213307;23;20028;-81
2023/10/12 14:03:10;;;;;;;2.33;1.00;;;16.00;73.40;;;;;;6187122;23;20004;-81
2023/10/12 14:05:40;;;;;;;2.85;1.25;;;16.00;72.50;;;;;;6213751;23;20322;-82
2023/10/12 14:08:12;;;;;;;2.22;0.80;;;16.00;72.90;;;;;;6162821;23;20016;-82
2023/10/12 14:10:41;;;;;;;2.95;0.90;;;16.10;73.40;;;;;;6213934;23;19997;-82
2023/10/12 14:13:09;;;;;;;4.38;1.00;;;16.10;73.10;;;;;;6188524;23;20000;-83
2023/10/12 14:15:36;;;;;;;2.60;0.95;;;16.20;72.50;;;;;;6188236;23;20438;-83
2023/10/12 14:18:05;;;;;;;2.10;1.00;;;16.20;72.50;;;;;;6164386;23;20024;-82
2023/10/12 14:20:37;;;;;;;1.85;1.00;;;16.10;72.20;;;;;;6165104;23;20032;-84
2023/10/12 14:23:09;;;;;;;1.65;0.85;;;16.20;71.40;;;;;;6191543;23;20012;-85
2023/10/12 14:25:42;;;;;;;3.72;0.90;;;16.20;71.70;;;;;;6214861;23;20007;-84
2023/10/12 14:28:11;;;;;;;2.20;0.88;;;16.20;70.80;;;;;;6165402;23;20017;-86
2023/10/12 14:30:38;;;;;;;1.70;0.80;;;16.20;70.70;;;;;;6165129;23;20001;-84
2023/10/12 14:33:06;;;;;;;1.63;1.00;;;16.30;69.90;;;;;;6165260;23;20005;-84
2023/10/12 14:35:39;;;;;;;3.00;1.00;;;16.30;71.10;;;;;;6165343;23;19997;-85
2023/10/12 14:38:13;;;;;;;2.00;0.82;;;16.30;69.20;;;;;;6190148;23;20000;-85
2023/10/12 14:40:42;;;;;;;2.03;0.95;;;16.30;69.90;;;;;;6166982;23;19997;-85
2023/10/12 14:43:13;;;;;;;1.73;0.75;;;16.40;69.60;;;;;;6189843;23;20007;-87
2023/10/12 14:45:48;;;;;;;0.95;0.50;;;16.40;68.00;;;;;;6189005;23;20428;-88
2023/10/12 14:48:18;;;;;;;3.90;0.75;;;16.30;67.70;;;;;;6216000;23;20024;-86
2023/10/12 14:50:49;;;;;;;2.60;0.80;;;16.30;67.10;;;;;;6190026;23;20400;-85
2023/10/12 14:53:21;;;;;;;2.97;0.95;;;16.40;65.90;;;;;;6190823;23;20012;-85
2023/10/12 14:55:51;;;;;;;2.72;0.77;;;16.30;66.30;;;;;;6216307;23;20001;-87
2023/10/12 14:58:19;;;;;;;1.05;0.63;;;16.40;65.00;;;;;;6190169;23;20088;-88
2023/10/12 15:00:46;;;;;;;1.35;0.70;;;16.40;64.00;;;;;;6188841;23;20050;-88
2023/10/12 15:03:21;;;;;;;1.88;0.80;;;16.30;64.30;;;;;;6216161;23;20365;-88
2023/10/12 15:05:51;;;;;;;3.22;0.80;;;16.30;64.10;;;;;;6216427;23;20007;-87
2023/10/12 15:08:19;;;;;;;1.27;0.73;;;16.30;62.50;;;;;;6216467;23;20446;-86
2023/10/12 15:10:47;;;;;;;2.28;0.70;;;16.30;62.60;;;;;;6166467;23;19997;-89
2023/10/12 15:13:16;;;;;;;3.05;0.90;;;16.30;61.60;;;;;;6191257;23;20028;-88
2023/10/12 15:15:47;;;;;;;1.52;0.70;;;16.40;61.40;;;;;;6217091;23;20021;-84
2023/10/12 15:18:17;;;;;;;2.10;0.88;;;16.30;60.90;;;;;;6216233;23;20075;-87
2023/10/12 15:20:45;;;;;;;0.75;0.57;;;16.30;60.70;;;;;;6190229;23;19996;-88
2023/10/12 15:23:18;;;;;;;2.55;0.93;;;16.30;60.30;;;;;;6215697;23;20359;-88
2023/10/12 15:25:46;;;;;;;1.75;0.77;;;16.30;60.40;;;;;;6190041;23;19997;-87
2023/10/12 15:28:13;;;;;;;1.42;0.70;;;16.30;60.40;;;;;;6164989;23;20016;-87
2023/10/12 15:30:43;;;;;;;1.13;0.63;;;16.20;60.60;;;;;;6217211;23;20004;-89
2023/10/12 15:33:10;;;;;;;2.00;0.82;;;16.20;60.00;;;;;;6217105;23;20028;-90
2023/10/12 15:35:39;;;;;;;2.35;0.70;;;16.30;59.90;;;;;;6191240;23;20500;-89
2023/10/12 15:38:07;;;;;;;1.75;0.60;;;16.30;59.60;;;;;;6167648;23;20011;-90
2023/10/12 15:40:36;;;;;;;0.95;0.65;;;16.30;59.40;;;;;;6190320;23;20012;-89
2023/10/12 15:43:14;;;;;;;2.72;0.80;;;16.20;59.50;;;;;;6191374;23;20004;-90
2023/10/12 15:45:46;;;;;;;1.02;0.43;;;16.20;59.50;;;;;;6219919;23;20076;-89
2023/10/12 15:48:14;;;;;;;3.53;0.95;;;16.20;59.30;;;;;;6168322;23;20012;-90
2023/10/12 15:50:44;;;;;;;2.80;0.80;;;16.20;59.10;;;;;;6166683;23;19997;-88
2023/10/12 15:53:11;;;;;;;1.83;0.82;;;16.20;59.00;;;;;;6189078;23;20011;-88
2023/10/12 15:55:43;;;;;;;5.30;0.63;;;16.20;58.90;;;;;;6188591;23;20000;-88
2023/10/12 15:58:11;;;;;;;1.00;0.65;;;16.20;59.00;;;;;;6167983;23;20000;-88
2023/10/12 16:00:39;;;;;;;1.10;0.60;;;16.20;58.70;;;;;;6216778;23;19996;-88
2023/10/12 16:03:06;;;;;;;2.00;0.75;;;16.20;58.50;;;;;;6216727;23;20005;-89
2023/10/12 16:05:34;;;;;;;0.75;0.50;;;16.20;59.10;;;;;;6166333;23;20032;-89
2023/10/12 16:08:10;;;;;;;1.42;0.63;;;16.20;59.10;;;;;;6190423;23;20148;-89
2023/10/12 16:10:38;;;;;;;2.03;0.80;;;16.10;59.50;;;;;;6171342;23;20400;-89
2023/10/12 16:13:08;;;;;;;0.52;0.50;;;16.10;59.40;;;;;;6191109;23;20090;-90
2023/10/12 16:15:41;;;;;;;2.72;0.80;;;16.10;59.30;;;;;;6191065;23;20017;-90
2023/10/12 16:18:09;;;;;;;2.63;0.75;;;16.10;59.20;;;;;;6190988;23;20032;-85
2023/10/12 16:20:36;;;;;;;0.77;0.50;;;16.00;58.70;;;;;;6190307;23;20005;-89
2023/10/12 16:23:04;;;;;;;1.08;0.80;;;16.00;58.20;;;;;;6217203;23;19996;-90
2023/10/12 16:25:31;;;;;;;1.63;0.80;;;16.00;57.30;;;;;;6165515;23;20091;-88
2023/10/12 16:27:58;;;;;;;5.10;0.93;;;16.00;57.20;;;;;;6216785;23;20004;-88